Delta Ocean — SVAU9 — position and weather

sailwx.info

Track history (hours):
 
Tides and Currents Weather Stations Pressure Air Temp Water Temp Dewpoint Dewpoint Depression Visibility Wind Speed Wind Dir Waves Ship Positions

Delta Ocean

Last reported at 2017-Nov-02 19:55 UTC. Time now 2017-Nov-19 08:57 UTC.
Position S 34°18' E 018°06'.
Warning: this ship's position is 16 days out of date.

Length 274 m; draft 15.5 m.

Type: Tanker. MMSI: 240958000.

Date/timePositionNaut miles runAvg speedWind from/ knotsBaromVisibWave heightAir tempDewpointWater temp
2017-Nov-02 19:55S 34°18' E 018°06'1710.6
2017-Nov-02 18:22S 34°02' E 018°10'411.0
2017-Nov-02 18:00S 33°58' E 018°11'510.5
2017-Nov-02 17:30S 33°53' E 018°12'2 4.0
2017-Nov-02 17:00S 33°51' E 018°11'2 4.9
2017-Nov-02 16:30S 33°50' E 018°08'  
2017-Oct-27 08:42S 05°25' E 010°60'212.1
2017-Oct-27 08:29S 05°23' E 011°01'612.2
2017-Oct-27 08:00S 05°19' E 011°05'612.2
2017-Oct-27 07:30S 05°14' E 011°09'612.0
2017-Oct-27 07:00S 05°09' E 011°12'611.5
2017-Oct-27 06:30S 05°06' E 011°17'612.0
2017-Oct-27 06:00S 05°04' E 011°23'611.8
2017-Oct-27 05:30S 05°02' E 011°28'611.2
2017-Oct-27 04:59S 04°57' E 011°31'1010.8
2017-Oct-27 04:06S 04°51' E 011°39'  
2017-Oct-23 23:05S 04°57' E 011°32'1 4.7
2017-Oct-23 22:54S 04°58' E 011°32'2 4.7
2017-Oct-23 22:30S 04°59' E 011°31'2 4.7
2017-Oct-23 22:00S 05°01' E 011°31'2 4.2
2017-Oct-23 21:30S 05°03' E 011°29'2 4.7
2017-Oct-23 21:01S 05°04' E 011°27'2 4.7
2017-Oct-23 20:30S 05°04' E 011°25'2 4.6
2017-Oct-23 20:00S 05°05' E 011°22'  
Track history (hours):
 
Tides and Currents Weather Stations Pressure Air Temp Water Temp Dewpoint Dewpoint Depression Visibility Wind Speed Wind Dir Waves Ship Positions

Delta Ocean

Last reported at 2017-Nov-02 19:55 UTC. Time now 2017-Nov-19 08:57 UTC.
Position S 34°18' E 018°06'.
Warning: this ship's position is 16 days out of date.

Length 274 m; draft 15.5 m.

Type: Tanker. MMSI: 240958000.

Date/timePositionNaut miles runAvg speedWind from/ knotsBaromVisibWave heightAir tempDewpointWater temp
2017-Nov-02 19:55S 34°18' E 018°06'1710.6
2017-Nov-02 18:22S 34°02' E 018°10'411.0
2017-Nov-02 18:00S 33°58' E 018°11'510.5
2017-Nov-02 17:30S 33°53' E 018°12'2 4.0
2017-Nov-02 17:00S 33°51' E 018°11'2 4.9
2017-Nov-02 16:30S 33°50' E 018°08'  
2017-Oct-27 08:42S 05°25' E 010°60'212.1
2017-Oct-27 08:29S 05°23' E 011°01'612.2
2017-Oct-27 08:00S 05°19' E 011°05'612.2
2017-Oct-27 07:30S 05°14' E 011°09'612.0
2017-Oct-27 07:00S 05°09' E 011°12'611.5
2017-Oct-27 06:30S 05°06' E 011°17'612.0
2017-Oct-27 06:00S 05°04' E 011°23'611.8
2017-Oct-27 05:30S 05°02' E 011°28'611.2
2017-Oct-27 04:59S 04°57' E 011°31'1010.8
2017-Oct-27 04:06S 04°51' E 011°39'  
2017-Oct-23 23:05S 04°57' E 011°32'1 4.7
2017-Oct-23 22:54S 04°58' E 011°32'2 4.7
2017-Oct-23 22:30S 04°59' E 011°31'2 4.7
2017-Oct-23 22:00S 05°01' E 011°31'2 4.2
2017-Oct-23 21:30S 05°03' E 011°29'2 4.7
2017-Oct-23 21:01S 05°04' E 011°27'2 4.7
2017-Oct-23 20:30S 05°04' E 011°25'2 4.6
2017-Oct-23 20:00S 05°05' E 011°22'  

Dump ship's entire track history